Sign-in with your pilot id or email, or register

ICAO: EKCH Name / Country: airport Copenhagen (Kastrup) / Denmark
Latitude: 55.6179 Longitude: 12.656
Total Arrivals:
Strict Standards: Non-static method AirportData::getarrflights() should not be called statically, assuming $this from incompatible context in /var/www/customers/vh-7192/web/home/phpvms/core/templates/airport_info.tpl on line 18
0
Total Departures:
Strict Standards: Non-static method AirportData::getdeptflights() should not be called statically, assuming $this from incompatible context in /var/www/customers/vh-7192/web/home/phpvms/core/templates/airport_info.tpl on line 21
1
Latest Arrival: (-) Latest Departure: MTA535 (EKCH-LHBP) Tibor Berces
Metar: EKCH 260320Z 27015KT 9999 -RA FEW010 SCT013 BKN016 02/00 Q0984 TEMPO 4000 RA BKN004
More info

Charts for EKCH


NOTAM


Warning: file_get_contents(http://api.vateud.net/notams/EKCH.json): failed to open stream: Redirection limit reached, aborting in /var/www/customers/vh-7192/web/home/phpvms/core/common/NOTAMSData.class.php on line 18

Warning: Invalid argument supplied for foreach() in /var/www/customers/vh-7192/web/home/phpvms/core/common/NOTAMSData.class.php on line 22

airport Copenhagen (Kastrup)